sensor_id;sensor_type;location;lat;lon;timestamp;P1;durP1;ratioP1;P2;durP2;ratioP2
4206;SDS011;2117;47.972;7.830;2023-04-07T00:00:39;4.13;;;2.53;;
4206;SDS011;2117;47.972;7.830;2023-04-07T00:03:04;6.90;;;2.97;;
4206;SDS011;2117;47.972;7.830;2023-04-07T00:05:31;3.33;;;2.30;;
4206;SDS011;2117;47.972;7.830;2023-04-07T00:07:57;4.33;;;2.40;;
4206;SDS011;2117;47.972;7.830;2023-04-07T00:10:23;3.90;;;2.40;;
4206;SDS011;2117;47.972;7.830;2023-04-07T00:12:49;5.00;;;2.20;;
4206;SDS011;2117;47.972;7.830;2023-04-07T00:15:15;3.50;;;2.60;;
4206;SDS011;2117;47.972;7.830;2023-04-07T00:17:40;3.70;;;2.80;;
4206;SDS011;2117;47.972;7.830;2023-04-07T00:20:06;5.03;;;2.60;;
4206;SDS011;2117;47.972;7.830;2023-04-07T00:22:32;6.53;;;2.30;;
4206;SDS011;2117;47.972;7.830;2023-04-07T00:24:58;4.30;;;2.17;;
4206;SDS011;2117;47.972;7.830;2023-04-07T00:27:23;3.57;;;2.50;;
4206;SDS011;2117;47.972;7.830;2023-04-07T00:29:49;3.77;;;2.67;;
4206;SDS011;2117;47.972;7.830;2023-04-07T00:32:14;4.10;;;2.80;;
4206;SDS011;2117;47.972;7.830;2023-04-07T00:34:40;3.70;;;2.30;;
4206;SDS011;2117;47.972;7.830;2023-04-07T00:37:05;5.83;;;2.60;;
4206;SDS011;2117;47.972;7.830;2023-04-07T00:39:31;3.97;;;2.87;;
4206;SDS011;2117;47.972;7.830;2023-04-07T00:41:57;5.40;;;3.13;;
4206;SDS011;2117;47.972;7.830;2023-04-07T00:44:22;5.90;;;3.43;;
4206;SDS011;2117;47.972;7.830;2023-04-07T00:46:48;4.13;;;2.73;;
4206;SDS011;2117;47.972;7.830;2023-04-07T00:49:14;6.53;;;3.20;;
4206;SDS011;2117;47.972;7.830;2023-04-07T00:51:42;9.20;;;3.73;;
4206;SDS011;2117;47.972;7.830;2023-04-07T00:54:07;5.00;;;3.00;;
4206;SDS011;2117;47.972;7.830;2023-04-07T00:56:34;4.60;;;2.47;;
4206;SDS011;2117;47.972;7.830;2023-04-07T00:58:59;3.83;;;1.80;;
4206;SDS011;2117;47.972;7.830;2023-04-07T01:01:34;4.00;;;2.83;;
4206;SDS011;2117;47.972;7.830;2023-04-07T01:04:04;4.53;;;2.30;;
4206;SDS011;2117;47.972;7.830;2023-04-07T01:06:34;4.40;;;2.73;;
4206;SDS011;2117;47.972;7.830;2023-04-07T01:14:39;4.00;;;2.40;;
4206;SDS011;2117;47.972;7.830;2023-04-07T01:17:09;3.70;;;2.83;;
4206;SDS011;2117;47.972;7.830;2023-04-07T01:30:33;5.90;;;3.27;;
4206;SDS011;2117;47.972;7.830;2023-04-07T01:33:02;4.50;;;2.80;;
4206;SDS011;2117;47.972;7.830;2023-04-07T01:35:31;4.20;;;3.43;;
4206;SDS011;2117;47.972;7.830;2023-04-07T01:37:58;4.07;;;2.77;;
4206;SDS011;2117;47.972;7.830;2023-04-07T01:40:25;7.13;;;3.70;;
4206;SDS011;2117;47.972;7.830;2023-04-07T01:42:52;3.73;;;2.83;;
4206;SDS011;2117;47.972;7.830;2023-04-07T01:45:20;5.13;;;2.80;;
4206;SDS011;2117;47.972;7.830;2023-04-07T01:47:47;5.63;;;2.80;;
4206;SDS011;2117;47.972;7.830;2023-04-07T01:50:14;5.83;;;2.90;;
4206;SDS011;2117;47.972;7.830;2023-04-07T01:52:40;4.93;;;3.30;;
4206;SDS011;2117;47.972;7.830;2023-04-07T01:55:08;3.27;;;2.17;;
4206;SDS011;2117;47.972;7.830;2023-04-07T01:57:34;5.17;;;2.63;;
4206;SDS011;2117;47.972;7.830;2023-04-07T02:00:00;4.70;;;2.83;;
4206;SDS011;2117;47.972;7.830;2023-04-07T02:02:25;4.83;;;2.70;;
4206;SDS011;2117;47.972;7.830;2023-04-07T02:04:56;6.30;;;3.00;;
4206;SDS011;2117;47.972;7.830;2023-04-07T02:07:31;3.77;;;2.77;;
4206;SDS011;2117;47.972;7.830;2023-04-07T02:10:05;4.50;;;2.83;;
4206;SDS011;2117;47.972;7.830;2023-04-07T02:12:36;4.17;;;2.73;;
4206;SDS011;2117;47.972;7.830;2023-04-07T02:15:04;6.17;;;3.07;;
4206;SDS011;2117;47.972;7.830;2023-04-07T02:17:32;6.03;;;2.70;;
4206;SDS011;2117;47.972;7.830;2023-04-07T02:19:59;5.27;;;3.00;;
4206;SDS011;2117;47.972;7.830;2023-04-07T02:22:26;7.10;;;2.97;;
4206;SDS011;2117;47.972;7.830;2023-04-07T02:24:52;5.27;;;3.47;;
4206;SDS011;2117;47.972;7.830;2023-04-07T02:27:18;4.37;;;2.90;;
4206;SDS011;2117;47.972;7.830;2023-04-07T02:29:44;6.97;;;2.63;;
4206;SDS011;2117;47.972;7.830;2023-04-07T02:32:10;8.63;;;3.60;;
4206;SDS011;2117;47.972;7.830;2023-04-07T02:34:35;4.83;;;3.30;;
4206;SDS011;2117;47.972;7.830;2023-04-07T02:37:01;6.03;;;3.10;;
4206;SDS011;2117;47.972;7.830;2023-04-07T02:39:26;6.13;;;2.83;;
4206;SDS011;2117;47.972;7.830;2023-04-07T02:41:52;4.13;;;2.93;;
4206;SDS011;2117;47.972;7.830;2023-04-07T02:44:17;6.33;;;2.60;;
4206;SDS011;2117;47.972;7.830;2023-04-07T02:46:43;6.43;;;3.30;;
4206;SDS011;2117;47.972;7.830;2023-04-07T02:49:09;3.80;;;2.77;;
4206;SDS011;2117;47.972;7.830;2023-04-07T02:51:34;6.37;;;3.33;;
4206;SDS011;2117;47.972;7.830;2023-04-07T02:54:00;4.00;;;2.77;;
4206;SDS011;2117;47.972;7.830;2023-04-07T02:56:25;5.63;;;3.47;;
4206;SDS011;2117;47.972;7.830;2023-04-07T02:58:51;6.87;;;3.93;;
4206;SDS011;2117;47.972;7.830;2023-04-07T03:01:16;8.37;;;4.10;;
4206;SDS011;2117;47.972;7.830;2023-04-07T03:03:42;6.20;;;4.13;;
4206;SDS011;2117;47.972;7.830;2023-04-07T03:06:09;8.30;;;3.83;;
4206;SDS011;2117;47.972;7.830;2023-04-07T03:08:34;12.93;;;4.30;;
4206;SDS011;2117;47.972;7.830;2023-04-07T03:11:00;9.80;;;4.00;;
4206;SDS011;2117;47.972;7.830;2023-04-07T03:13:25;7.43;;;3.57;;
4206;SDS011;2117;47.972;7.830;2023-04-07T03:15:51;6.57;;;3.43;;
4206;SDS011;2117;47.972;7.830;2023-04-07T03:18:17;6.43;;;3.00;;
4206;SDS011;2117;47.972;7.830;2023-04-07T03:20:42;7.50;;;2.83;;
4206;SDS011;2117;47.972;7.830;2023-04-07T03:23:08;3.67;;;2.43;;
4206;SDS011;2117;47.972;7.830;2023-04-07T03:25:34;7.73;;;2.40;;
4206;SDS011;2117;47.972;7.830;2023-04-07T03:27:59;4.67;;;3.10;;
4206;SDS011;2117;47.972;7.830;2023-04-07T03:30:25;5.57;;;2.97;;
4206;SDS011;2117;47.972;7.830;2023-04-07T03:32:51;3.57;;;2.10;;
4206;SDS011;2117;47.972;7.830;2023-04-07T03:35:17;3.77;;;2.90;;
4206;SDS011;2117;47.972;7.830;2023-04-07T03:37:42;10.53;;;3.37;;
4206;SDS011;2117;47.972;7.830;2023-04-07T03:40:08;6.60;;;3.63;;
4206;SDS011;2117;47.972;7.830;2023-04-07T03:42:34;4.77;;;3.20;;
4206;SDS011;2117;47.972;7.830;2023-04-07T03:44:59;7.33;;;3.50;;
4206;SDS011;2117;47.972;7.830;2023-04-07T03:47:25;4.23;;;2.70;;
4206;SDS011;2117;47.972;7.830;2023-04-07T03:49:51;5.70;;;2.93;;
4206;SDS011;2117;47.972;7.830;2023-04-07T03:52:16;6.53;;;3.20;;
4206;SDS011;2117;47.972;7.830;2023-04-07T03:54:42;5.87;;;3.43;;
4206;SDS011;2117;47.972;7.830;2023-04-07T03:57:07;5.07;;;3.20;;
4206;SDS011;2117;47.972;7.830;2023-04-07T03:59:33;4.33;;;3.07;;
4206;SDS011;2117;47.972;7.830;2023-04-07T04:01:59;5.97;;;3.40;;
4206;SDS011;2117;47.972;7.830;2023-04-07T04:04:24;5.70;;;4.80;;
4206;SDS011;2117;47.972;7.830;2023-04-07T04:06:50;4.30;;;3.43;;
4206;SDS011;2117;47.972;7.830;2023-04-07T04:09:16;4.70;;;3.00;;
4206;SDS011;2117;47.972;7.830;2023-04-07T04:11:41;3.47;;;2.87;;
4206;SDS011;2117;47.972;7.830;2023-04-07T04:14:07;3.77;;;3.03;;
4206;SDS011;2117;47.972;7.830;2023-04-07T04:16:34;3.83;;;2.60;;
4206;SDS011;2117;47.972;7.830;2023-04-07T04:19:00;5.90;;;2.60;;
4206;SDS011;2117;47.972;7.830;2023-04-07T04:21:25;4.33;;;2.73;;
4206;SDS011;2117;47.972;7.830;2023-04-07T04:23:51;4.77;;;2.77;;
4206;SDS011;2117;47.972;7.830;2023-04-07T04:26:17;4.03;;;2.70;;
4206;SDS011;2117;47.972;7.830;2023-04-07T04:28:43;6.40;;;3.47;;
4206;SDS011;2117;47.972;7.830;2023-04-07T04:31:08;4.80;;;3.27;;
4206;SDS011;2117;47.972;7.830;2023-04-07T04:33:34;6.40;;;4.67;;
4206;SDS011;2117;47.972;7.830;2023-04-07T04:36:00;9.90;;;5.27;;
4206;SDS011;2117;47.972;7.830;2023-04-07T04:38:26;10.13;;;5.10;;
4206;SDS011;2117;47.972;7.830;2023-04-07T04:40:51;10.40;;;5.60;;
4206;SDS011;2117;47.972;7.830;2023-04-07T04:43:17;10.97;;;5.40;;
4206;SDS011;2117;47.972;7.830;2023-04-07T04:45:43;10.10;;;4.63;;
4206;SDS011;2117;47.972;7.830;2023-04-07T04:48:08;9.37;;;5.03;;
4206;SDS011;2117;47.972;7.830;2023-04-07T04:50:35;11.07;;;5.93;;
4206;SDS011;2117;47.972;7.830;2023-04-07T04:53:00;30.77;;;8.73;;
4206;SDS011;2117;47.972;7.830;2023-04-07T04:55:26;10.90;;;6.27;;
4206;SDS011;2117;47.972;7.830;2023-04-07T04:57:52;6.83;;;4.53;;
4206;SDS011;2117;47.972;7.830;2023-04-07T05:00:18;7.30;;;4.30;;
4206;SDS011;2117;47.972;7.830;2023-04-07T05:02:44;8.30;;;4.10;;
4206;SDS011;2117;47.972;7.830;2023-04-07T05:05:10;7.10;;;4.50;;
4206;SDS011;2117;47.972;7.830;2023-04-07T05:07:36;7.10;;;3.87;;
4206;SDS011;2117;47.972;7.830;2023-04-07T05:10:04;4.33;;;3.50;;
4206;SDS011;2117;47.972;7.830;2023-04-07T05:12:33;4.60;;;3.50;;
4206;SDS011;2117;47.972;7.830;2023-04-07T05:14:59;6.77;;;3.67;;
4206;SDS011;2117;47.972;7.830;2023-04-07T05:17:24;4.37;;;2.77;;
4206;SDS011;2117;47.972;7.830;2023-04-07T05:19:50;5.53;;;2.57;;
4206;SDS011;2117;47.972;7.830;2023-04-07T05:22:15;6.60;;;2.63;;
4206;SDS011;2117;47.972;7.830;2023-04-07T05:24:41;6.03;;;2.50;;
4206;SDS011;2117;47.972;7.830;2023-04-07T05:27:06;4.47;;;2.37;;
4206;SDS011;2117;47.972;7.830;2023-04-07T05:29:32;4.87;;;2.77;;
4206;SDS011;2117;47.972;7.830;2023-04-07T05:31:57;5.43;;;2.77;;
4206;SDS011;2117;47.972;7.830;2023-04-07T05:34:25;4.03;;;2.80;;
4206;SDS011;2117;47.972;7.830;2023-04-07T05:36:51;4.93;;;3.23;;
4206;SDS011;2117;47.972;7.830;2023-04-07T05:39:16;4.67;;;3.17;;
4206;SDS011;2117;47.972;7.830;2023-04-07T05:41:42;6.30;;;3.07;;
4206;SDS011;2117;47.972;7.830;2023-04-07T05:44:08;4.63;;;3.07;;
4206;SDS011;2117;47.972;7.830;2023-04-07T05:46:33;5.73;;;3.00;;
4206;SDS011;2117;47.972;7.830;2023-04-07T05:48:59;7.33;;;3.30;;
4206;SDS011;2117;47.972;7.830;2023-04-07T05:51:25;4.10;;;2.57;;
4206;SDS011;2117;47.972;7.830;2023-04-07T05:53:50;4.23;;;2.70;;
4206;SDS011;2117;47.972;7.830;2023-04-07T05:56:16;6.07;;;3.90;;
4206;SDS011;2117;47.972;7.830;2023-04-07T05:58:41;7.00;;;3.57;;
4206;SDS011;2117;47.972;7.830;2023-04-07T06:01:07;7.73;;;4.10;;
4206;SDS011;2117;47.972;7.830;2023-04-07T06:03:32;7.50;;;4.87;;
4206;SDS011;2117;47.972;7.830;2023-04-07T06:05:58;10.20;;;5.33;;
4206;SDS011;2117;47.972;7.830;2023-04-07T06:08:24;7.87;;;4.87;;
4206;SDS011;2117;47.972;7.830;2023-04-07T06:10:49;12.30;;;5.20;;
4206;SDS011;2117;47.972;7.830;2023-04-07T06:13:15;6.23;;;3.80;;
4206;SDS011;2117;47.972;7.830;2023-04-07T06:15:40;5.90;;;3.80;;
4206;SDS011;2117;47.972;7.830;2023-04-07T06:18:06;5.33;;;3.40;;
4206;SDS011;2117;47.972;7.830;2023-04-07T06:20:32;5.03;;;2.63;;
4206;SDS011;2117;47.972;7.830;2023-04-07T06:22:57;4.97;;;3.43;;
4206;SDS011;2117;47.972;7.830;2023-04-07T06:25:23;5.67;;;3.20;;
4206;SDS011;2117;47.972;7.830;2023-04-07T06:27:49;10.80;;;6.10;;
4206;SDS011;2117;47.972;7.830;2023-04-07T06:30:14;7.47;;;3.53;;
4206;SDS011;2117;47.972;7.830;2023-04-07T06:32:40;5.30;;;3.53;;
4206;SDS011;2117;47.972;7.830;2023-04-07T06:35:06;4.47;;;3.47;;
4206;SDS011;2117;47.972;7.830;2023-04-07T06:37:32;4.90;;;2.97;;
4206;SDS011;2117;47.972;7.830;2023-04-07T06:39:57;4.83;;;3.50;;
4206;SDS011;2117;47.972;7.830;2023-04-07T06:42:23;5.03;;;3.57;;
4206;SDS011;2117;47.972;7.830;2023-04-07T06:44:48;4.90;;;4.10;;
4206;SDS011;2117;47.972;7.830;2023-04-07T06:47:14;6.93;;;3.07;;
4206;SDS011;2117;47.972;7.830;2023-04-07T06:49:40;4.83;;;3.40;;
4206;SDS011;2117;47.972;7.830;2023-04-07T06:52:05;5.37;;;3.70;;
4206;SDS011;2117;47.972;7.830;2023-04-07T06:54:31;5.73;;;4.10;;
4206;SDS011;2117;47.972;7.830;2023-04-07T06:56:56;12.33;;;4.30;;
4206;SDS011;2117;47.972;7.830;2023-04-07T06:59:22;6.63;;;3.87;;
4206;SDS011;2117;47.972;7.830;2023-04-07T07:01:48;5.80;;;3.80;;
4206;SDS011;2117;47.972;7.830;2023-04-07T07:04:13;6.03;;;4.07;;
4206;SDS011;2117;47.972;7.830;2023-04-07T07:06:39;5.70;;;3.63;;
4206;SDS011;2117;47.972;7.830;2023-04-07T07:09:05;6.00;;;3.33;;
4206;SDS011;2117;47.972;7.830;2023-04-07T07:11:30;4.67;;;3.93;;
4206;SDS011;2117;47.972;7.830;2023-04-07T07:13:56;6.00;;;3.20;;
4206;SDS011;2117;47.972;7.830;2023-04-07T07:16:21;5.33;;;3.27;;
4206;SDS011;2117;47.972;7.830;2023-04-07T07:18:50;5.13;;;3.53;;
4206;SDS011;2117;47.972;7.830;2023-04-07T07:21:16;6.60;;;3.73;;
4206;SDS011;2117;47.972;7.830;2023-04-07T07:23:42;4.93;;;3.47;;
4206;SDS011;2117;47.972;7.830;2023-04-07T07:26:08;4.27;;;3.87;;
4206;SDS011;2117;47.972;7.830;2023-04-07T07:28:34;4.83;;;3.77;;
4206;SDS011;2117;47.972;7.830;2023-04-07T07:31:00;5.30;;;4.20;;
4206;SDS011;2117;47.972;7.830;2023-04-07T07:33:34;4.87;;;3.37;;
4206;SDS011;2117;47.972;7.830;2023-04-07T07:35:59;4.60;;;3.83;;
4206;SDS011;2117;47.972;7.830;2023-04-07T07:38:25;5.33;;;3.90;;
4206;SDS011;2117;47.972;7.830;2023-04-07T07:40:51;6.03;;;4.47;;
4206;SDS011;2117;47.972;7.830;2023-04-07T07:43:17;4.77;;;3.53;;
4206;SDS011;2117;47.972;7.830;2023-04-07T07:45:42;6.60;;;5.07;;
4206;SDS011;2117;47.972;7.830;2023-04-07T07:48:08;5.63;;;4.37;;
4206;SDS011;2117;47.972;7.830;2023-04-07T07:50:33;9.13;;;3.60;;
4206;SDS011;2117;47.972;7.830;2023-04-07T07:52:59;3.73;;;2.63;;
4206;SDS011;2117;47.972;7.830;2023-04-07T07:55:25;5.77;;;4.10;;
4206;SDS011;2117;47.972;7.830;2023-04-07T07:57:50;4.77;;;3.30;;
4206;SDS011;2117;47.972;7.830;2023-04-07T08:00:16;4.00;;;3.33;;
4206;SDS011;2117;47.972;7.830;2023-04-07T08:02:42;8.47;;;3.67;;
4206;SDS011;2117;47.972;7.830;2023-04-07T08:05:07;8.20;;;3.63;;
4206;SDS011;2117;47.972;7.830;2023-04-07T08:07:33;4.90;;;3.53;;
4206;SDS011;2117;47.972;7.830;2023-04-07T08:09:59;5.57;;;3.90;;
4206;SDS011;2117;47.972;7.830;2023-04-07T08:12:24;6.20;;;3.67;;
4206;SDS011;2117;47.972;7.830;2023-04-07T08:14:50;5.40;;;4.77;;
4206;SDS011;2117;47.972;7.830;2023-04-07T08:17:15;5.97;;;4.20;;
4206;SDS011;2117;47.972;7.830;2023-04-07T08:19:41;4.60;;;3.77;;
4206;SDS011;2117;47.972;7.830;2023-04-07T08:22:06;4.67;;;3.80;;
4206;SDS011;2117;47.972;7.830;2023-04-07T08:24:32;5.17;;;3.90;;
4206;SDS011;2117;47.972;7.830;2023-04-07T08:26:58;5.33;;;4.10;;
4206;SDS011;2117;47.972;7.830;2023-04-07T08:29:23;5.90;;;4.27;;
4206;SDS011;2117;47.972;7.830;2023-04-07T08:31:49;4.17;;;3.40;;
4206;SDS011;2117;47.972;7.830;2023-04-07T08:34:14;8.10;;;3.70;;
4206;SDS011;2117;47.972;7.830;2023-04-07T08:36:40;4.70;;;4.10;;
4206;SDS011;2117;47.972;7.830;2023-04-07T08:39:06;6.57;;;4.30;;
4206;SDS011;2117;47.972;7.830;2023-04-07T08:44:00;5.90;;;3.63;;
4206;SDS011;2117;47.972;7.830;2023-04-07T08:46:27;5.77;;;3.53;;
4206;SDS011;2117;47.972;7.830;2023-04-07T08:48:54;7.23;;;4.03;;
4206;SDS011;2117;47.972;7.830;2023-04-07T08:51:31;4.60;;;3.70;;
4206;SDS011;2117;47.972;7.830;2023-04-07T08:53:59;4.80;;;3.93;;
4206;SDS011;2117;47.972;7.830;2023-04-07T08:56:34;5.23;;;4.30;;
4206;SDS011;2117;47.972;7.830;2023-04-07T08:59:02;7.10;;;4.60;;
4206;SDS011;2117;47.972;7.830;2023-04-07T09:01:30;7.03;;;4.27;;
4206;SDS011;2117;47.972;7.830;2023-04-07T09:03:58;7.47;;;4.80;;
4206;SDS011;2117;47.972;7.830;2023-04-07T09:06:24;4.90;;;3.73;;
4206;SDS011;2117;47.972;7.830;2023-04-07T09:08:51;7.17;;;4.47;;
4206;SDS011;2117;47.972;7.830;2023-04-07T09:11:16;11.67;;;4.40;;
4206;SDS011;2117;47.972;7.830;2023-04-07T09:13:42;5.23;;;4.00;;
4206;SDS011;2117;47.972;7.830;2023-04-07T09:16:07;10.20;;;4.27;;
4206;SDS011;2117;47.972;7.830;2023-04-07T09:18:33;7.00;;;4.20;;
4206;SDS011;2117;47.972;7.830;2023-04-07T09:21:00;5.50;;;4.60;;
4206;SDS011;2117;47.972;7.830;2023-04-07T09:23:28;6.07;;;4.07;;
4206;SDS011;2117;47.972;7.830;2023-04-07T09:26:22;5.50;;;4.33;;
4206;SDS011;2117;47.972;7.830;2023-04-07T09:28:55;5.57;;;4.13;;
4206;SDS011;2117;47.972;7.830;2023-04-07T09:31:23;6.27;;;4.70;;
4206;SDS011;2117;47.972;7.830;2023-04-07T09:34:25;4.80;;;2.90;;
4206;SDS011;2117;47.972;7.830;2023-04-07T09:36:53;5.77;;;4.00;;
4206;SDS011;2117;47.972;7.830;2023-04-07T09:39:19;5.30;;;4.03;;
4206;SDS011;2117;47.972;7.830;2023-04-07T09:41:45;5.03;;;3.40;;
4206;SDS011;2117;47.972;7.830;2023-04-07T09:44:10;4.93;;;3.53;;
4206;SDS011;2117;47.972;7.830;2023-04-07T09:46:47;5.80;;;3.70;;
4206;SDS011;2117;47.972;7.830;2023-04-07T09:49:16;8.80;;;4.20;;
4206;SDS011;2117;47.972;7.830;2023-04-07T09:51:54;6.87;;;4.47;;
4206;SDS011;2117;47.972;7.830;2023-04-07T09:54:37;4.50;;;3.57;;
4206;SDS011;2117;47.972;7.830;2023-04-07T09:57:04;5.40;;;2.77;;
4206;SDS011;2117;47.972;7.830;2023-04-07T09:59:31;2.93;;;2.53;;
4206;SDS011;2117;47.972;7.830;2023-04-07T10:01:57;3.80;;;2.20;;
4206;SDS011;2117;47.972;7.830;2023-04-07T10:04:24;4.93;;;2.37;;
4206;SDS011;2117;47.972;7.830;2023-04-07T10:06:55;3.60;;;2.43;;
4206;SDS011;2117;47.972;7.830;2023-04-07T10:09:25;4.37;;;2.50;;
4206;SDS011;2117;47.972;7.830;2023-04-07T10:11:52;4.07;;;2.60;;
4206;SDS011;2117;47.972;7.830;2023-04-07T10:14:19;4.20;;;2.50;;
4206;SDS011;2117;47.972;7.830;2023-04-07T10:16:47;4.33;;;2.67;;
4206;SDS011;2117;47.972;7.830;2023-04-07T10:19:13;3.70;;;2.57;;
4206;SDS011;2117;47.972;7.830;2023-04-07T10:21:41;2.77;;;2.00;;
4206;SDS011;2117;47.972;7.830;2023-04-07T10:24:13;2.37;;;2.00;;
4206;SDS011;2117;47.972;7.830;2023-04-07T10:26:44;2.83;;;1.83;;
4206;SDS011;2117;47.972;7.830;2023-04-07T10:29:14;2.13;;;1.67;;
4206;SDS011;2117;47.972;7.830;2023-04-07T10:31:40;3.80;;;2.07;;
4206;SDS011;2117;47.972;7.830;2023-04-07T10:34:06;2.23;;;1.60;;
4206;SDS011;2117;47.972;7.830;2023-04-07T10:36:32;2.57;;;1.83;;
4206;SDS011;2117;47.972;7.830;2023-04-07T10:41:36;2.20;;;1.93;;
4206;SDS011;2117;47.972;7.830;2023-04-07T10:44:03;3.43;;;2.07;;
4206;SDS011;2117;47.972;7.830;2023-04-07T10:46:52;2.17;;;1.80;;
4206;SDS011;2117;47.972;7.830;2023-04-07T10:49:28;2.10;;;1.57;;
4206;SDS011;2117;47.972;7.830;2023-04-07T10:54:38;2.43;;;1.67;;
4206;SDS011;2117;47.972;7.830;2023-04-07T10:57:08;3.30;;;1.70;;
4206;SDS011;2117;47.972;7.830;2023-04-07T10:59:36;2.03;;;1.53;;
4206;SDS011;2117;47.972;7.830;2023-04-07T11:04:39;2.63;;;1.83;;
4206;SDS011;2117;47.972;7.830;2023-04-07T11:07:07;2.90;;;1.70;;
4206;SDS011;2117;47.972;7.830;2023-04-07T11:09:33;2.00;;;1.60;;
4206;SDS011;2117;47.972;7.830;2023-04-07T11:11:59;3.23;;;1.90;;
4206;SDS011;2117;47.972;7.830;2023-04-07T11:14:28;2.93;;;1.97;;
4206;SDS011;2117;47.972;7.830;2023-04-07T11:16:54;3.47;;;1.87;;
4206;SDS011;2117;47.972;7.830;2023-04-07T11:19:20;3.03;;;1.37;;
4206;SDS011;2117;47.972;7.830;2023-04-07T11:21:47;3.23;;;2.13;;
4206;SDS011;2117;47.972;7.830;2023-04-07T11:24:30;3.93;;;1.80;;
4206;SDS011;2117;47.972;7.830;2023-04-07T11:26:56;2.70;;;1.73;;
4206;SDS011;2117;47.972;7.830;2023-04-07T11:29:28;2.50;;;1.80;;
4206;SDS011;2117;47.972;7.830;2023-04-07T11:31:58;2.30;;;1.70;;
4206;SDS011;2117;47.972;7.830;2023-04-07T11:34:29;2.93;;;1.87;;
4206;SDS011;2117;47.972;7.830;2023-04-07T11:36:56;5.60;;;1.67;;
4206;SDS011;2117;47.972;7.830;2023-04-07T11:39:27;2.30;;;1.33;;
4206;SDS011;2117;47.972;7.830;2023-04-07T11:41:55;9.30;;;1.90;;
4206;SDS011;2117;47.972;7.830;2023-04-07T11:44:20;3.80;;;1.37;;
4206;SDS011;2117;47.972;7.830;2023-04-07T11:46:59;2.50;;;1.63;;
4206;SDS011;2117;47.972;7.830;2023-04-07T11:49:27;2.17;;;1.50;;
4206;SDS011;2117;47.972;7.830;2023-04-07T11:51:56;2.30;;;1.60;;
4206;SDS011;2117;47.972;7.830;2023-04-07T11:54:27;2.17;;;1.70;;
4206;SDS011;2117;47.972;7.830;2023-04-07T11:57:10;2.50;;;1.53;;
4206;SDS011;2117;47.972;7.830;2023-04-07T11:59:36;3.03;;;2.10;;
4206;SDS011;2117;47.972;7.830;2023-04-07T12:02:02;2.33;;;1.73;;
4206;SDS011;2117;47.972;7.830;2023-04-07T12:04:28;2.83;;;2.00;;
4206;SDS011;2117;47.972;7.830;2023-04-07T12:06:55;2.27;;;1.60;;
4206;SDS011;2117;47.972;7.830;2023-04-07T12:09:34;2.63;;;1.80;;
4206;SDS011;2117;47.972;7.830;2023-04-07T12:12:01;3.50;;;2.60;;
4206;SDS011;2117;47.972;7.830;2023-04-07T12:14:30;8.43;;;2.43;;
4206;SDS011;2117;47.972;7.830;2023-04-07T12:16:56;2.77;;;1.80;;
4206;SDS011;2117;47.972;7.830;2023-04-07T12:19:24;7.20;;;2.10;;
4206;SDS011;2117;47.972;7.830;2023-04-07T12:21:52;3.10;;;2.00;;
4206;SDS011;2117;47.972;7.830;2023-04-07T12:24:18;3.03;;;1.77;;
4206;SDS011;2117;47.972;7.830;2023-04-07T12:26:43;3.17;;;1.87;;
4206;SDS011;2117;47.972;7.830;2023-04-07T12:29:09;4.10;;;2.63;;
4206;SDS011;2117;47.972;7.830;2023-04-07T12:31:34;5.70;;;2.30;;
4206;SDS011;2117;47.972;7.830;2023-04-07T12:34:01;2.97;;;2.07;;
4206;SDS011;2117;47.972;7.830;2023-04-07T12:36:26;3.53;;;2.27;;
4206;SDS011;2117;47.972;7.830;2023-04-07T12:38:53;4.43;;;1.83;;
4206;SDS011;2117;47.972;7.830;2023-04-07T12:41:20;2.63;;;1.50;;
4206;SDS011;2117;47.972;7.830;2023-04-07T12:43:46;2.20;;;1.87;;
4206;SDS011;2117;47.972;7.830;2023-04-07T12:46:11;2.63;;;2.00;;
4206;SDS011;2117;47.972;7.830;2023-04-07T12:48:37;4.20;;;2.10;;
4206;SDS011;2117;47.972;7.830;2023-04-07T12:51:02;3.60;;;2.10;;
4206;SDS011;2117;47.972;7.830;2023-04-07T12:53:28;2.60;;;1.50;;
4206;SDS011;2117;47.972;7.830;2023-04-07T12:55:54;3.07;;;2.20;;
4206;SDS011;2117;47.972;7.830;2023-04-07T12:58:20;2.80;;;2.20;;
4206;SDS011;2117;47.972;7.830;2023-04-07T13:00:46;2.57;;;1.87;;
4206;SDS011;2117;47.972;7.830;2023-04-07T13:03:12;2.50;;;1.80;;
4206;SDS011;2117;47.972;7.830;2023-04-07T13:05:38;2.60;;;2.13;;
4206;SDS011;2117;47.972;7.830;2023-04-07T13:08:03;4.63;;;1.93;;
4206;SDS011;2117;47.972;7.830;2023-04-07T13:10:29;2.60;;;1.70;;
4206;SDS011;2117;47.972;7.830;2023-04-07T13:12:55;2.80;;;1.80;;
4206;SDS011;2117;47.972;7.830;2023-04-07T13:15:21;2.00;;;1.50;;
4206;SDS011;2117;47.972;7.830;2023-04-07T13:17:46;7.07;;;1.47;;
4206;SDS011;2117;47.972;7.830;2023-04-07T13:20:12;2.43;;;1.63;;
4206;SDS011;2117;47.972;7.830;2023-04-07T13:22:38;2.90;;;1.50;;
4206;SDS011;2117;47.972;7.830;2023-04-07T13:25:04;2.50;;;1.97;;
4206;SDS011;2117;47.972;7.830;2023-04-07T13:27:30;2.07;;;1.50;;
4206;SDS011;2117;47.972;7.830;2023-04-07T13:29:55;3.63;;;1.50;;
4206;SDS011;2117;47.972;7.830;2023-04-07T13:32:21;2.03;;;1.37;;
4206;SDS011;2117;47.972;7.830;2023-04-07T13:34:47;2.90;;;1.57;;
4206;SDS011;2117;47.972;7.830;2023-04-07T13:37:13;2.00;;;1.60;;
4206;SDS011;2117;47.972;7.830;2023-04-07T13:39:38;2.37;;;1.57;;
4206;SDS011;2117;47.972;7.830;2023-04-07T13:42:04;2.20;;;1.50;;
4206;SDS011;2117;47.972;7.830;2023-04-07T13:44:30;4.70;;;1.80;;
4206;SDS011;2117;47.972;7.830;2023-04-07T13:46:57;2.10;;;1.40;;
4206;SDS011;2117;47.972;7.830;2023-04-07T13:49:23;2.20;;;1.63;;
4206;SDS011;2117;47.972;7.830;2023-04-07T13:51:49;2.17;;;1.43;;
4206;SDS011;2117;47.972;7.830;2023-04-07T13:54:15;2.03;;;1.57;;
4206;SDS011;2117;47.972;7.830;2023-04-07T13:56:42;1.60;;;1.20;;
4206;SDS011;2117;47.972;7.830;2023-04-07T13:59:07;2.73;;;1.53;;
4206;SDS011;2117;47.972;7.830;2023-04-07T14:01:33;2.90;;;1.73;;
4206;SDS011;2117;47.972;7.830;2023-04-07T14:03:59;5.70;;;1.77;;
4206;SDS011;2117;47.972;7.830;2023-04-07T14:06:27;2.40;;;1.57;;
4206;SDS011;2117;47.972;7.830;2023-04-07T14:08:52;2.23;;;1.57;;
4206;SDS011;2117;47.972;7.830;2023-04-07T14:11:18;2.70;;;1.83;;
4206;SDS011;2117;47.972;7.830;2023-04-07T14:13:44;1.97;;;1.30;;
4206;SDS011;2117;47.972;7.830;2023-04-07T14:16:10;5.10;;;2.90;;
4206;SDS011;2117;47.972;7.830;2023-04-07T14:18:36;2.90;;;2.10;;
4206;SDS011;2117;47.972;7.830;2023-04-07T14:21:02;13.30;;;7.37;;
4206;SDS011;2117;47.972;7.830;2023-04-07T14:23:29;10.00;;;4.67;;
4206;SDS011;2117;47.972;7.830;2023-04-07T14:25:56;3.73;;;2.40;;
4206;SDS011;2117;47.972;7.830;2023-04-07T14:28:25;2.70;;;1.97;;
4206;SDS011;2117;47.972;7.830;2023-04-07T14:30:51;2.43;;;1.47;;
4206;SDS011;2117;47.972;7.830;2023-04-07T14:33:18;9.07;;;8.20;;
4206;SDS011;2117;47.972;7.830;2023-04-07T14:35:47;3.33;;;2.83;;
4206;SDS011;2117;47.972;7.830;2023-04-07T14:38:13;2.83;;;2.20;;
4206;SDS011;2117;47.972;7.830;2023-04-07T14:40:39;2.50;;;1.60;;
4206;SDS011;2117;47.972;7.830;2023-04-07T14:43:05;6.57;;;5.97;;
4206;SDS011;2117;47.972;7.830;2023-04-07T14:45:32;10.50;;;9.50;;
4206;SDS011;2117;47.972;7.830;2023-04-07T14:47:58;7.83;;;7.10;;
4206;SDS011;2117;47.972;7.830;2023-04-07T14:50:24;13.33;;;12.23;;
4206;SDS011;2117;47.972;7.830;2023-04-07T14:52:50;4.93;;;3.80;;
4206;SDS011;2117;47.972;7.830;2023-04-07T14:55:16;4.90;;;4.50;;
4206;SDS011;2117;47.972;7.830;2023-04-07T14:57:42;5.73;;;4.40;;
4206;SDS011;2117;47.972;7.830;2023-04-07T15:00:07;4.53;;;3.63;;
4206;SDS011;2117;47.972;7.830;2023-04-07T15:02:34;3.60;;;2.80;;
4206;SDS011;2117;47.972;7.830;2023-04-07T15:05:00;4.97;;;4.50;;
4206;SDS011;2117;47.972;7.830;2023-04-07T15:07:26;3.27;;;2.83;;
4206;SDS011;2117;47.972;7.830;2023-04-07T15:09:51;6.10;;;4.97;;
4206;SDS011;2117;47.972;7.830;2023-04-07T15:12:17;2.97;;;1.97;;
4206;SDS011;2117;47.972;7.830;2023-04-07T15:14:43;2.03;;;1.83;;
4206;SDS011;2117;47.972;7.830;2023-04-07T15:17:10;2.60;;;2.00;;
4206;SDS011;2117;47.972;7.830;2023-04-07T15:19:35;2.57;;;2.00;;
4206;SDS011;2117;47.972;7.830;2023-04-07T15:22:01;2.10;;;1.60;;
4206;SDS011;2117;47.972;7.830;2023-04-07T15:24:27;2.20;;;2.00;;
4206;SDS011;2117;47.972;7.830;2023-04-07T15:26:52;1.67;;;1.23;;
4206;SDS011;2117;47.972;7.830;2023-04-07T15:29:18;1.93;;;1.40;;
4206;SDS011;2117;47.972;7.830;2023-04-07T15:31:43;2.50;;;1.20;;
4206;SDS011;2117;47.972;7.830;2023-04-07T15:34:09;1.83;;;1.47;;
4206;SDS011;2117;47.972;7.830;2023-04-07T15:36:35;2.20;;;1.57;;
4206;SDS011;2117;47.972;7.830;2023-04-07T15:39:03;2.20;;;1.30;;